Home > Products > Valid Products > TAF

000
FTUS42 KCAE 221700
TAFOGB
TAF
KOGB 221735Z 2218/2318 30008KT P6SM SCT060
     FM230100 00000KT P6SM SCT200
     FM231500 35006KT P6SM SCT150=



000
FTUS42 KCAE 221700
TAFCUB
TAF
KCUB 221735Z 2218/2318 29005KT P6SM FEW060 SCT200
     FM230100 00000KT P6SM SCT200
     FM231500 02006KT P6SM BKN150=



000
FTUS42 KCAE 221700
TAFAGS
TAF
KAGS 221735Z 2218/2318 30008KT P6SM SCT060
     FM230100 00000KT P6SM SCT200
     FM231500 35006KT P6SM SCT150=



000
FTUS42 KCAE 221700
TAFCAE
TAF
KCAE 221735Z 2218/2318 29006KT P6SM FEW060 SCT200
     FM230100 VRB03KT P6SM SCT200
     FM231500 02006KT P6SM BKN150=



000
FTUS42 KCAE 221700
TAFDNL
TAF
KDNL 221735Z 2218/2318 30008KT P6SM SCT060
     FM230100 VRB03KT P6SM SCT200
     FM231500 35006KT P6SM SCT150=



000
FTUS42 KCAE 221400 AAA
TAFAGS
TAF AMD
KAGS 221446Z 2215/2312 30007KT P6SM FEW060 SCT200
     FM230000 VRB03KT P6SM SCT200=



000
FTUS42 KCAE 221400 AAA
TAFDNL
TAF AMD
KDNL 221446Z 2215/2312 31008KT P6SM FEW060 SCT200
     FM230000 VRB03KT P6SM SCT200=



000
FTUS42 KCAE 221400 AAA
TAFCAE
TAF AMD
KCAE 221446Z 2215/2312 29007KT P6SM FEW060 SCT200
     FM230000 VRB03KT P6SM SCT200=



000
FTUS42 KCAE 221400 AAA
TAFCUB
TAF AMD
KCUB 221446Z 2215/2312 29005KT P6SM FEW060 SCT200
     FM230000 VRB03KT P6SM SCT200=



000
FTUS42 KCAE 221400 AAA
TAFOGB
TAF AMD
KOGB 221446Z 2215/2312 30007KT P6SM FEW060 SCT200
     FM230000 VRB03KT P6SM SCT200=



000
FTUS42 KCAE 221100
TAFAGS
TAF
KAGS 221122Z 2212/2312 VRB03KT P6SM SCT200
     FM221600 30006KT P6SM FEW060 SCT200
     FM230000 VRB03KT P6SM SCT200=



000
FTUS42 KCAE 221100
TAFCUB
TAF
KCUB 221122Z 2212/2312 VRB03KT P6SM SCT200
     FM221600 28006KT P6SM FEW060 SCT200
     FM230000 VRB03KT P6SM SCT200=



000
FTUS42 KCAE 221100
TAFDNL
TAF
KDNL 221122Z 2212/2312 VRB03KT P6SM SCT200
     FM221600 29006KT P6SM FEW060 SCT200
     FM230000 VRB03KT P6SM SCT200=



000
FTUS42 KCAE 221100
TAFOGB
TAF
KOGB 221122Z 2212/2312 VRB03KT P6SM SCT200
     FM221600 25007KT P6SM FEW060 SCT200
     FM230000 VRB03KT P6SM SCT200=



000
FTUS42 KCAE 221100
TAFCAE
TAF
KCAE 221122Z 2212/2312 VRB04KT P6SM SCT200
     FM221600 28006KT P6SM FEW060 SCT200
     FM230000 VRB03KT P6SM SCT200=



000
FTUS42 KCAE 221000 AAB
TAFAGS
TAF AMD
KAGS 221027Z 2210/2306 VRB03KT P6SM SCT200
     FM221600 30005KT P6SM FEW060 SCT200
     FM230000 VRB03KT P6SM SCT200=



000
FTUS42 KCAE 221000 AAB
TAFOGB
TAF AMD
KOGB 221025Z 2210/2306 VRB03KT P6SM SCT200
     FM221600 25007KT P6SM FEW060 SCT200
     FM230000 VRB03KT P6SM SCT200=



000
FTUS42 KCAE 220800 AAA
TAFCAE
TAF AMD
KCAE 220813Z 2208/2306 VRB03KT P6SM SCT200
     FM221600 28007KT P6SM FEW060 SCT200
     FM230000 VRB03KT P6SM SCT200=



000
FTUS42 KCAE 220800 AAA
TAFOGB
TAF AMD
KOGB 220813Z 2208/2306 VRB03KT P6SM SCT200
      TEMPO 2209/2212 4SM BR
     FM221600 25007KT P6SM FEW060 SCT200
     FM230000 VRB03KT P6SM SCT200=



000
FTUS42 KCAE 220800 AAA
TAFAGS
TAF AMD
KAGS 220813Z 2208/2306 VRB03KT P6SM SCT200
      TEMPO 2209/2212 4SM BR
     FM221600 30005KT P6SM FEW060 SCT200
     FM230000 VRB03KT P6SM SCT200=



000
FTUS42 KCAE 220800 AAA
TAFDNL
TAF AMD
KDNL 220813Z 2208/2306 VRB03KT P6SM SCT200
     FM221600 29006KT P6SM FEW060 SCT200
     FM230000 VRB03KT P6SM SCT200=



000
FTUS42 KCAE 220800 AAA
TAFCUB
TAF AMD
KCUB 220813Z 2208/2306 VRB03KT P6SM SCT200
     FM221600 28006KT P6SM FEW060 SCT200
     FM230000 VRB03KT P6SM SCT200=



000
FTUS42 KCAE 220500
TAFDNL
TAF
KDNL 220539Z 2206/2306 VRB03KT P6SM SCT200
     FM221600 29006KT P6SM FEW060 SCT200
     FM230000 VRB03KT P6SM SCT200=



000
FTUS42 KCAE 220500
TAFCUB
TAF
KCUB 220539Z 2206/2306 VRB03KT P6SM SCT200
      TEMPO 2208/2212 4SM BR
     FM221600 28006KT P6SM FEW060 SCT200
     FM230000 VRB03KT P6SM SCT200=



000
FTUS42 KCAE 220500
TAFAGS
TAF
KAGS 220539Z 2206/2306 VRB03KT P6SM SCT200
     FM221600 30005KT P6SM FEW060 SCT200
     FM230000 VRB03KT P6SM SCT200=



000
FTUS42 KCAE 220500
TAFCAE
TAF
KCAE 220539Z 2206/2306 VRB03KT P6SM SCT200
      TEMPO 2208/2212 4SM BR
     FM221600 28007KT P6SM FEW060 SCT200
     FM230000 VRB03KT P6SM SCT200=



000
FTUS42 KCAE 220500
TAFOGB
TAF
KOGB 220539Z 2206/2306 VRB03KT P6SM SCT200
     FM221600 25007KT P6SM FEW060 SCT200
     FM230000 VRB03KT P6SM SCT200=



000
FTUS42 KCAE 220200 AAA
TAFCAE
TAF AMD
KCAE 220241Z 2203/2224 VRB03KT P6SM FEW250
     FM221600 30005KT P6SM SCT250=



000
FTUS42 KCAE 220200 AAA
TAFCUB
TAF AMD
KCUB 220241Z 2203/2224 VRB03KT P6SM FEW250
     FM221600 30005KT P6SM SCT250=



000
FTUS42 KCAE 220200 AAA
TAFAGS
TAF AMD
KAGS 220241Z 2203/2224 VRB03KT P6SM FEW250
     FM221600 31005KT P6SM SCT250=



000
FTUS42 KCAE 220200 AAA
TAFDNL
TAF AMD
KDNL 220241Z 2203/2224 VRB03KT P6SM FEW250
     FM221600 31005KT P6SM SCT250=



000
FTUS42 KCAE 220200 AAA
TAFOGB
TAF AMD
KOGB 220241Z 2203/2224 VRB03KT P6SM FEW250
     FM221600 29005KT P6SM SCT250=



000
FTUS42 KCAE 212300
TAFDNL
TAF
KDNL 212323Z 2200/2224 VRB03KT P6SM FEW250
     FM221600 31005KT P6SM SCT250=



000
FTUS42 KCAE 212300
TAFOGB
TAF
KOGB 212323Z 2200/2224 VRB03KT P6SM FEW250
     FM221600 29005KT P6SM SCT250=



000
FTUS42 KCAE 212300
TAFCAE
TAF
KCAE 212323Z 2200/2224 VRB03KT P6SM FEW250
     FM221600 30005KT P6SM SCT250=



000
FTUS42 KCAE 212300
TAFCUB
TAF
KCUB 212323Z 2200/2224 VRB03KT P6SM FEW250
     FM221600 30005KT P6SM SCT250=



000
FTUS42 KCAE 212300
TAFAGS
TAF
KAGS 212323Z 2200/2224 VRB03KT P6SM FEW250
     FM221600 31005KT P6SM SCT250=



000
FTUS42 KCAE 212000 AAA
TAFCUB
TAF AMD
KCUB 212035Z 2121/2218 VRB04KT P6SM FEW060
     FM220000 00000KT P6SM BKN150
     FM221400 32005KT P6SM SCT250=



000
FTUS42 KCAE 212000 AAA
TAFAGS
TAF AMD
KAGS 212035Z 2121/2218 VRB05KT P6SM FEW060
     FM220100 00000KT P6SM BKN150
     FM221500 30006KT P6SM SCT250=



000
FTUS42 KCAE 212000 AAA
TAFDNL
TAF AMD
KDNL 212035Z 2121/2218 35005KT P6SM FEW060
     FM220100 VRB03KT P6SM BKN150
     FM221500 31007KT P6SM SCT250=



000
FTUS42 KCAE 212000 AAA
TAFCAE
TAF AMD
KCAE 212035Z 2121/2218 36005KT P6SM FEW060
     FM220100 00000KT P6SM BKN150
     FM221400 32005KT P6SM SCT250=



000
FTUS42 KCAE 212000 AAA
TAFOGB
TAF AMD
KOGB 212035Z 2121/2218 34006KT P6SM FEW060
     FM220100 00000KT P6SM BKN150
     FM221500 29005KT P6SM SCT250=



000
FTUS42 KCAE 211700
TAFAGS
TAF
KAGS 211738Z 2118/2218 VRB06KT P6SM FEW060
     FM220100 00000KT P6SM BKN150
     FM221500 30006KT P6SM SCT250=



000
FTUS42 KCAE 211700
TAFCAE
TAF
KCAE 211738Z 2118/2218 36005KT P6SM FEW060
     FM220100 00000KT P6SM BKN150
     FM221400 32005KT P6SM SCT250=



000
FTUS42 KCAE 211700
TAFDNL
TAF
KDNL 211738Z 2118/2218 35006KT P6SM FEW060
     FM220100 VRB03KT P6SM BKN150
     FM221500 31007KT P6SM SCT250=



000
FTUS42 KCAE 211700
TAFOGB
TAF
KOGB 211738Z 2118/2218 30006KT P6SM FEW060
     FM220100 00000KT P6SM BKN150
     FM221500 29005KT P6SM SCT250=



000
FTUS42 KCAE 211700
TAFCUB
TAF
KCUB 211738Z 2118/2218 VRB05KT P6SM FEW060
     FM220000 00000KT P6SM BKN150
     FM221400 32005KT P6SM SCT250=



000
FTUS42 KCAE 211400 AAA
TAFAGS
TAF AMD
KAGS 211432Z 2115/2212 VRB05KT P6SM SCT200
     FM211600 33005KT P6SM FEW050 SCT250
     FM220000 00000KT P6SM BKN150=



000
FTUS42 KCAE 211400 AAA
TAFOGB
TAF AMD
KOGB 211432Z 2115/2212 34006KT P6SM SCT200
     FM211600 32006KT P6SM FEW050 SCT250
     FM220000 VRB03KT P6SM BKN150=



000
FTUS42 KCAE 211400 AAA
TAFCUB
TAF AMD
KCUB 211432Z 2115/2212 VRB04KT P6SM SCT200
     FM211700 32005KT P6SM FEW050 SCT250
     FM220000 00000KT P6SM BKN150=



000
FTUS42 KCAE 211400 AAA
TAFDNL
TAF AMD
KDNL 211432Z 2115/2212 34005KT P6SM SCT200
     FM211600 33005KT P6SM FEW050 SCT250
     FM220000 VRB03KT P6SM BKN150=



000
FTUS42 KCAE 211400 AAA
TAFCAE
TAF AMD
KCAE 211432Z 2115/2212 35006KT P6SM SCT200
     FM211700 33006KT P6SM FEW050 SCT250
     FM220000 VRB03KT P6SM BKN150=



000
FTUS42 KCAE 211100
TAFDNL
TAF
KDNL 211121Z 2112/2212 VRB05KT P6SM SCT150
     FM211600 33005KT P6SM FEW050 SCT150
     FM220000 VRB03KT P6SM BKN150=



000
FTUS42 KCAE 211100
TAFCAE
TAF
KCAE 211121Z 2112/2212 VRB05KT P6SM SCT150
     FM211700 29005KT P6SM FEW050 SCT150
     FM220000 VRB03KT P6SM BKN150=



000
FTUS42 KCAE 211100
TAFCUB
TAF
KCUB 211121Z 2112/2212 VRB04KT P6SM SCT150
     FM211700 29005KT P6SM FEW050 SCT150
     FM220000 VRB03KT P6SM BKN150=



000
FTUS42 KCAE 211100
TAFAGS
TAF
KAGS 211121Z 2112/2212 VRB04KT P6SM SCT150
     FM211600 33005KT P6SM FEW050 SCT150
     FM220000 VRB03KT P6SM BKN150=



000
FTUS42 KCAE 211100
TAFOGB
TAF
KOGB 211121Z 2112/2212 VRB04KT P6SM SCT150
     FM211600 29005KT P6SM FEW050 SCT150
     FM220000 VRB03KT P6SM BKN150=



000
FTUS42 KCAE 211000 AAB
TAFOGB
TAF AMD
KOGB 211035Z 2111/2206 VRB04KT P6SM SCT150
     FM211600 29005KT P6SM FEW050 SCT150
     FM220000 VRB03KT P6SM BKN150=



000
FTUS42 KCAE 211000 AAB
TAFAGS
TAF AMD
KAGS 211035Z 2111/2206 VRB04KT P6SM SCT150
     FM211600 29005KT P6SM FEW050 SCT150
     FM220000 VRB03KT P6SM BKN150=



000
FTUS42 KCAE 210800 AAA
TAFCAE
TAF AMD
KCAE 210852Z 2109/2206 VRB05KT P6SM BKN150
     FM211700 29005KT P6SM FEW050 SCT150
     FM220000 VRB03KT P6SM BKN150=



000
FTUS42 KCAE 210800 AAA
TAFOGB
TAF AMD
KOGB 210852Z 2109/2206 VRB04KT P6SM SCT150
      TEMPO 2110/2112 4SM BR
     FM211600 29005KT P6SM FEW050 SCT150
     FM220000 VRB03KT P6SM BKN150=



000
FTUS42 KCAE 210800 AAA
TAFCUB
TAF AMD
KCUB 210852Z 2109/2206 VRB04KT P6SM BKN150
     FM211700 29005KT P6SM FEW050 SCT150
     FM220000 VRB03KT P6SM BKN150=



000
FTUS42 KCAE 210800 AAA
TAFDNL
TAF AMD
KDNL 210852Z 2109/2206 VRB05KT P6SM BKN150
     FM211600 29005KT P6SM FEW050 SCT150
     FM220000 VRB03KT P6SM BKN150=



000
FTUS42 KCAE 210800 AAA
TAFAGS
TAF AMD
KAGS 210852Z 2109/2206 VRB03KT P6SM BKN150
      TEMPO 2110/2112 4SM BR
     FM211600 29005KT P6SM FEW050 SCT150
     FM220000 VRB03KT P6SM BKN150=



000
FTUS42 KCAE 210500
TAFAGS
TAF
KAGS 210539Z 2106/2206 VRB03KT P6SM BKN150
     FM210900 VRB03KT 4SM BR SCT150
     FM211300 VRB04KT P6SM SCT150
     FM211600 29005KT P6SM FEW050 SCT150
     FM220000 VRB03KT P6SM BKN150=



000
FTUS42 KCAE 210500
TAFOGB
TAF
KOGB 210539Z 2106/2206 VRB04KT P6SM BKN150
     FM210900 VRB03KT 4SM BR SCT150
     FM211300 VRB03KT P6SM SCT150
     FM211600 29005KT P6SM FEW050 SCT150
     FM220000 VRB03KT P6SM BKN150=



000
FTUS42 KCAE 210500
TAFCUB
TAF
KCUB 210539Z 2106/2206 VRB04KT P6SM BKN150
      TEMPO 2110/2112 5SM BR
     FM211700 29005KT P6SM FEW050 SCT150
     FM220000 VRB03KT P6SM BKN150=



000
FTUS42 KCAE 210500
TAFDNL
TAF
KDNL 210539Z 2106/2206 VRB05KT P6SM BKN150
      TEMPO 2110/2112 5SM BR
     FM211600 29005KT P6SM FEW050 SCT150
     FM220000 VRB03KT P6SM BKN150=



000
FTUS42 KCAE 210500
TAFCAE
TAF
KCAE 210539Z 2106/2206 VRB05KT P6SM BKN150
      TEMPO 2110/2112 5SM BR
     FM211700 29005KT P6SM FEW050 SCT150
     FM220000 VRB03KT P6SM BKN150=



000
FTUS42 KCAE 210200 AAA
TAFCAE
TAF AMD
KCAE 210227Z 2102/2124 28007KT P6SM BKN150
     FM210500 VRB03KT P6SM BKN150
     FM211100 00000KT 6SM BR SCT150
     FM211300 VRB04KT P6SM SCT150=



000
FTUS42 KCAE 210200 AAA
TAFDNL
TAF AMD
KDNL 210227Z 2102/2124 VRB03KT P6SM BKN150
     FM211000 00000KT 5SM BR SCT150
     FM211300 VRB04KT P6SM SCT150=



000
FTUS42 KCAE 210200 AAA
TAFOGB
TAF AMD
KOGB 210227Z 2102/2124 27005KT P6SM BKN150
     FM210500 VRB03KT P6SM BKN150
     FM211100 00000KT 4SM BR SCT150
     FM211300 VRB04KT P6SM SCT150=



000
FTUS42 KCAE 210200 AAA
TAFAGS
TAF AMD
KAGS 210227Z 2102/2124 VRB03KT P6SM BKN150
     FM211000 00000KT 4SM BR SCT150
     FM211300 VRB04KT P6SM SCT150=



000
FTUS42 KCAE 210200 AAA
TAFCUB
TAF AMD
KCUB 210227Z 2102/2124 28007KT P6SM BKN150
     FM210500 VRB03KT P6SM BKN150
     FM211100 00000KT 6SM BR SCT150
     FM211300 VRB04KT P6SM SCT150=



000
FTUS42 KCAE 202300
TAFDNL
TAF
KDNL 202325Z 2100/2124 VRB03KT P6SM BKN150
     FM211000 00000KT 5SM BR SCT250
     FM211300 VRB04KT P6SM SCT250=



000
FTUS42 KCAE 202300
TAFAGS
TAF
KAGS 202325Z 2100/2124 VRB03KT P6SM BKN150
     FM211000 00000KT 4SM BR SCT250
     FM211300 VRB04KT P6SM SCT250=



000
FTUS42 KCAE 202300
TAFOGB
TAF
KOGB 202325Z 2100/2124 VRB03KT P6SM BKN150
     FM211100 00000KT 4SM BR SCT250
     FM211300 VRB04KT P6SM SCT250=



000
FTUS42 KCAE 202300
TAFCAE
TAF
KCAE 202325Z 2100/2124 VRB03KT P6SM BKN150
     FM211100 00000KT 6SM BR SCT250
     FM211300 VRB04KT P6SM SCT250=



000
FTUS42 KCAE 202300
TAFCUB
TAF
KCUB 202325Z 2100/2124 VRB03KT P6SM BKN150
     FM211100 00000KT 6SM BR SCT250
     FM211300 VRB04KT P6SM SCT250=



000
FTUS42 KCAE 202000 AAA
TAFAGS
TAF AMD
KAGS 202044Z 2021/2118 32007KT P6SM VCTS SCT060CB
      TEMPO 2021/2022 5SM -TSRA BKN050CB
     FM202300 30007KT P6SM SCT060
     FM210000 VRB03KT P6SM SCT250
     FM211000 00000KT 2SM BR SCT250
     FM211300 VRB04KT P6SM SCT250=



000
FTUS42 KCAE 202000 AAA
TAFOGB
TAF AMD
KOGB 202044Z 2021/2118 26004KT P6SM SCT060
     FM210000 VRB03KT P6SM SCT250
     FM211100 00000KT 2SM BR SCT250
     FM211300 VRB04KT P6SM SCT250=



000
FTUS42 KCAE 202000 AAA
TAFCAE
TAF AMD
KCAE 202044Z 2021/2118 33006KT P6SM SCT060
     FM210000 VRB03KT P6SM SCT250
     FM211100 00000KT 4SM BR SCT250
     FM211300 VRB04KT P6SM SCT250=



000
FTUS42 KCAE 202000 AAA
TAFDNL
TAF AMD
KDNL 202044Z 2021/2118 31007KT P6SM VCTS SCT060CB
      TEMPO 2021/2022 5SM -TSRA BKN050CB
     FM202300 30007KT P6SM SCT060
     FM210000 VRB03KT P6SM SCT250
     FM211000 00000KT 4SM BR SCT250
     FM211300 VRB04KT P6SM SCT250=



000
FTUS42 KCAE 202000 AAA
TAFCUB
TAF AMD
KCUB 202044Z 2021/2118 32006KT P6SM SCT060
     FM210000 00000KT P6SM SCT250
     FM211100 00000KT 4SM BR SCT250
     FM211300 VRB04KT P6SM SCT250=



000
FTUS42 KCAE 201700
TAFCAE
TAF
KCAE 201724Z 2018/2118 28006KT P6SM SCT050
     FM210000 VRB03KT P6SM SCT250
     FM211100 00000KT 4SM BR SCT250
     FM211300 VRB04KT P6SM SCT250=



000
FTUS42 KCAE 201700
TAFOGB
TAF
KOGB 201724Z 2018/2118 26006KT P6SM SCT050
     FM210000 VRB03KT P6SM SCT250
     FM211100 00000KT 2SM BR SCT250
     FM211300 VRB04KT P6SM SCT250=



000
FTUS42 KCAE 201700
TAFCUB
TAF
KCUB 201724Z 2018/2118 28004KT P6SM SCT050
     FM210000 00000KT P6SM SCT250
     FM211100 00000KT 4SM BR SCT250
     FM211300 VRB04KT P6SM SCT250=



000
FTUS42 KCAE 201700
TAFDNL
TAF
KDNL 201724Z 2018/2118 30007KT P6SM SCT050
     FM210000 VRB03KT P6SM SCT250
     FM211000 00000KT 4SM BR SCT250
     FM211300 VRB04KT P6SM SCT250=



000
FTUS42 KCAE 201700
TAFAGS
TAF
KAGS 201724Z 2018/2118 30007KT P6SM SCT050
     FM210000 VRB03KT P6SM SCT250
     FM211000 00000KT 2SM BR SCT250
     FM211300 VRB04KT P6SM SCT250=



000
FTUS42 KCAE 201400 AAA
TAFCUB
TAF AMD
KCUB 201422Z 2014/2112 28004KT P6SM SCT050
     FM210000 00000KT P6SM SCT250
     FM211100 00000KT 3SM BR SCT250=



000
FTUS42 KCAE 201400 AAA
TAFDNL
TAF AMD
KDNL 201422Z 2014/2112 30007KT P6SM SCT050
     FM210000 VRB03KT P6SM SCT250
     FM211000 00000KT 3SM BR SCT250=



000
FTUS42 KCAE 201400 AAA
TAFCAE
TAF AMD
KCAE 201422Z 2014/2112 28006KT P6SM SCT050
     FM210000 VRB03KT P6SM SCT250
     FM211100 00000KT 3SM BR SCT250=



000
FTUS42 KCAE 201400 AAA
TAFAGS
TAF AMD
KAGS 201422Z 2014/2112 30007KT P6SM SCT050
     FM210000 VRB03KT P6SM SCT250
     FM211000 00000KT 1SM BR SCT250=



000
FTUS42 KCAE 201400 AAA
TAFOGB
TAF AMD
KOGB 201422Z 2014/2112 26006KT P6SM SCT050
     FM210000 VRB03KT P6SM SCT250
     FM211100 00000KT 1SM BR SCT250=



000
FTUS42 KCAE 201100
TAFAGS
TAF
KAGS 201125Z 2012/2112 VRB04KT P6SM SCT200
     FM201400 29007KT P6SM SCT050 BKN200
     FM210000 VRB03KT P6SM SCT200=



000
FTUS42 KCAE 201100
TAFCAE
TAF
KCAE 201125Z 2012/2112 VRB04KT P6SM SCT200
     FM201500 28007KT P6SM SCT050 BKN200
     FM202300 VRB03KT P6SM SCT200=



000
FTUS42 KCAE 201100
TAFDNL
TAF
KDNL 201125Z 2012/2112 VRB04KT P6SM SCT200
     FM201400 28007KT P6SM SCT050 BKN200
     FM210000 VRB03KT P6SM SCT200=



000
FTUS42 KCAE 201100
TAFCUB
TAF
KCUB 201125Z 2012/2112 VRB04KT P6SM SCT200
     FM201500 28006KT P6SM SCT050 BKN200
     FM202300 VRB03KT P6SM SCT200=



000
FTUS42 KCAE 201100
TAFOGB
TAF
KOGB 201125Z 2012/2112 VRB04KT P6SM SCT200
     FM201400 26008KT P6SM SCT050 BKN200
     FM202300 VRB03KT P6SM SCT200=



000
FTUS42 KCAE 201000 AAB
TAFAGS
TAF AMD
KAGS 201041Z 2011/2106 VRB04KT P6SM SCT200
     FM201400 29007KT P6SM SCT050 BKN200
     FM210000 VRB03KT P6SM SCT200=



000
FTUS42 KCAE 201000 AAB
TAFCUB
TAF AMD
KCUB 201041Z 2011/2106 VRB04KT P6SM SCT200
     FM201500 28006KT P6SM SCT050 BKN200
     FM202300 VRB03KT P6SM SCT200=



000
FTUS42 KCAE 201000 AAB
TAFOGB
TAF AMD
KOGB 201041Z 2011/2106 VRB04KT P6SM SCT200
     FM201400 26008KT P6SM SCT050 BKN200
     FM202300 VRB03KT P6SM SCT200=



000
FTUS42 KCAE 201000 AAB
TAFCAE
TAF AMD
KCAE 201041Z 2011/2106 VRB04KT P6SM SCT200
     FM201500 28007KT P6SM SCT050 BKN200
     FM202300 VRB03KT P6SM SCT200=



000
FTUS42 KCAE 201000 AAB
TAFDNL
TAF AMD
KDNL 201041Z 2011/2106 VRB04KT P6SM SCT200
     FM201400 28007KT P6SM SCT050 BKN200
     FM210000 VRB03KT P6SM SCT200=



000
FTUS42 KCAE 200800 AAA
TAFCUB
TAF AMD
KCUB 200819Z 2008/2106 VRB04KT P6SM FEW080 BKN200
      TEMPO 2010/2012 5SM BR
     FM201300 28007KT P6SM SCT050 BKN200
     FM202300 VRB03KT P6SM SCT200=



000
FTUS42 KCAE 200800 AAA
TAFAGS
TAF AMD
KAGS 200819Z 2008/2106 VRB04KT P6SM BKN200
      TEMPO 2009/2012 4SM BR
     FM201400 29007KT P6SM SCT050 BKN200
     FM202300 VRB03KT P6SM SCT200=



000
FTUS42 KCAE 200800 AAA
TAFOGB
TAF AMD
KOGB 200819Z 2008/2106 VRB04KT P6SM BKN200
      TEMPO 2009/2012 4SM BR
     FM201400 28008KT P6SM SCT050 BKN200
     FM202300 VRB03KT P6SM SCT200=



000
FTUS42 KCAE 200800 AAA
TAFDNL
TAF AMD
KDNL 200819Z 2008/2106 VRB04KT P6SM BKN200
      TEMPO 2010/2012 5SM BR
     FM201400 27007KT P6SM SCT050 BKN200
     FM202300 VRB03KT P6SM SCT200=



000
FTUS42 KCAE 200800 AAA
TAFCAE
TAF AMD
KCAE 200819Z 2008/2106 VRB04KT P6SM FEW080 BKN200
      TEMPO 2010/2012 5SM BR
     FM201500 28007KT P6SM SCT050 BKN200
     FM202300 VRB03KT P6SM SCT200=



000
FTUS42 KCAE 200500
TAFDNL
TAF
KDNL 200540Z 2006/2106 VRB04KT P6SM BKN200
      TEMPO 2010/2012 5SM BR
     FM201400 27007KT P6SM SCT250=



000
FTUS42 KCAE 200500
TAFAGS
TAF
KAGS 200540Z 2006/2106 VRB04KT P6SM BKN200
     FM200900 VRB03KT 4SM BR SCT200
     FM201400 29007KT P6SM SCT250=



000
FTUS42 KCAE 200500
TAFCUB
TAF
KCUB 200540Z 2006/2106 VRB04KT P6SM BKN200
      TEMPO 2010/2012 5SM BR
     FM201300 28007KT P6SM SCT250=



000
FTUS42 KCAE 200500
TAFOGB
TAF
KOGB 200540Z 2006/2106 VRB04KT P6SM BKN200
     FM200900 VRB03KT 4SM BR SCT200
     FM201400 28008KT P6SM SCT250=



000
FTUS42 KCAE 200500
TAFCAE
TAF
KCAE 200540Z 2006/2106 VRB04KT P6SM BKN200
      TEMPO 2010/2012 5SM BR
     FM201500 28007KT P6SM SCT250=



000
FTUS42 KCAE 200300 AAB
TAFCUB
TAF AMD
KCUB 200303Z 2003/2024 VRB03KT P6SM BKN250
     FM201000 VRB03KT 5SM BR SCT250
     FM201300 27005KT P6SM SCT250=



000
FTUS42 KCAE 200300 AAA
TAFOGB
TAF AMD
KOGB 200303Z 2003/2024 VRB03KT P6SM BKN250
     FM200900 VRB03KT 4SM BR SCT250
     FM201300 29005KT P6SM SCT250=



000
FTUS42 KCAE 200300 AAA
TAFAGS
TAF AMD
KAGS 200303Z 2003/2024 VRB04KT P6SM BKN250
     FM200900 VRB03KT 4SM BR SCT250
     FM201300 29005KT P6SM SCT250=



000
FTUS42 KCAE 200300 AAA
TAFCAE
TAF AMD
KCAE 200303Z 2003/2024 VRB03KT P6SM BKN250
     FM201000 VRB03KT 5SM BR SCT250
     FM201300 29005KT P6SM SCT250=



000
FTUS42 KCAE 200300 AAA
TAFDNL
TAF AMD
KDNL 200303Z 2003/2024 VRB04KT P6SM BKN250
     FM201000 VRB03KT 5SM BR SCT250
     FM201300 27005KT P6SM SCT250=



000
FTUS42 KCAE 192300 AAA
TAFCUB
TAF AMD
KCUB 192347Z 2000/2024 24008KT P6SM BKN060
     FM200100 25005KT P6SM SCT060 SCT250
     FM201000 VRB03KT 5SM BR SCT250
     FM201300 27005KT P6SM SCT250=



000
FTUS42 KCAE 192300 AAA
TAFCAE
TAF AMD
KCAE 192346Z 2000/2024 24008KT P6SM BKN060
     FM200100 25005KT P6SM SCT060 SCT250
     FM201000 VRB03KT 4SM BR SCT250
     FM201300 29005KT P6SM SCT250=



000
FTUS42 KCAE 192300
TAFDNL
TAF
KDNL 192321Z 2000/2024 23005KT P6SM SCT250
     FM201000 VRB03KT 5SM BR SCT250
     FM201300 27005KT P6SM SCT250=



000
FTUS42 KCAE 192300
TAFCAE
TAF
KCAE 192321Z 2000/2024 25005KT P6SM SCT250
     FM201000 VRB03KT 4SM BR SCT250
     FM201300 29005KT P6SM SCT250=



000
FTUS42 KCAE 192300
TAFAGS
TAF
KAGS 192321Z 2000/2024 23010KT P6SM SCT250
     FM200100 25005KT P6SM SCT250
     FM200900 VRB03KT 4SM BR SCT250
     FM201300 29005KT P6SM SCT250=



000
FTUS42 KCAE 192300
TAFCUB
TAF
KCUB 192321Z 2000/2024 25005KT P6SM SCT250
     FM201000 VRB03KT 5SM BR SCT250
     FM201300 27005KT P6SM SCT250=



000
FTUS42 KCAE 192300
TAFOGB
TAF
KOGB 192321Z 2000/2024 25010KT P6SM SCT250
     FM200100 25005KT P6SM SCT250
     FM200900 VRB03KT 4SM BR SCT250
     FM201300 29005KT P6SM SCT250=



000
FTUS42 KCAE 192000 AAA
TAFDNL
TAF AMD
KDNL 192035Z 1921/2018 27008G16KT P6SM SCT040
     FM192300 27005KT P6SM SCT250=



000
FTUS42 KCAE 192000 AAA
TAFAGS
TAF AMD
KAGS 192035Z 1921/2018 26008G16KT P6SM SCT040
     FM192300 27005KT P6SM SCT250=



000
FTUS42 KCAE 192000 AAA
TAFCUB
TAF AMD
KCUB 192034Z 1921/2018 27006G14KT P6SM SCT040
     FM192300 27004KT P6SM SCT250=



000
FTUS42 KCAE 192000 AAA
TAFOGB
TAF AMD
KOGB 192034Z 1921/2018 26010G18KT P6SM SCT040
     FM192300 27003KT P6SM SCT250=



000
FTUS42 KCAE 192000 AAA
TAFCAE
TAF AMD
KCAE 192033Z 1921/2018 27010G18KT P6SM SCT040
      TEMPO 1921/1922 6SM -RA BKN040
     FM192300 27005KT P6SM SCT250=



    US Dept of Commerce
    National Oceanic and Atmospheric Administration
    National Weather Service
    1325 East West Highway
    Silver Spring, MD 20910
    Page Author: NWS Internet Services Team
Disclaimer
Information Quality
Credits
Glossary
Privacy Policy
Freedom of Information Act (FOIA)
About Us
Career Opportunities